Abell, Maryland
Current Conditions -  °F | °C
As of 3:05 PM on Wednesday 28 Jan 2015 (Local Time) from K2W6 Reporting Station
Clear Clear  
Wind Chill: 29°   Ceiling: Unl
Heat Index: 36°   Visibility: 10mi
Dew Point:   Wind: 9mph
Humidity: 28%   Direction: 300°WNW
Pressure: 30.22"   Gusts: 16mph
Location:  38.25°N, 76.74°W
Report Text: K2W6 282005Z AUTO 30008G14KT 260V340 10SM CLR 02/M15 A3022 RMK AO1
Loading
Personal Weather Stations






























Interactive Weather Map New forecast layout! Learn more

10-Day Weather Forecast

Advertisements
Track Severe Weather on mobile